| time (UTC) | temp F | wind direction | speed knots | gust knots | rain 1hr in | rain 24hr in | rain mn in | humidity % | barometer mb |
| 20260906113707 | 74 | 144 | 0.9 | 3.5 | 0.00 | 0.00 | 0.39 | 100 | 1015.0 |
| 20260906113207 | 74 | 156 | 0.9 | 2.6 | 0.00 | 0.00 | 0.39 | 100 | 1015.0 |
| 20260906112707 | 74 | 137 | 1.7 | 6.1 | 0.00 | 0.00 | 0.39 | 100 | 1015.0 |
| 20260906112206 | 74 | 202 | 1.7 | 3.5 | 0.00 | 0.00 | 0.39 | 100 | 1014.0 |
| 20260906111706 | 74 | 143 | 0.9 | 3.5 | 0.00 | 0.00 | 0.39 | 100 | 1014.0 |
| 20260906111206 | 74 | 194 | 2.6 | 6.1 | 0.00 | 0.00 | 0.39 | 100 | 1014.0 |
| 20260906110706 | 75 | 208 | 2.6 | 7.0 | 0.00 | 0.00 | 0.38 | 100 | 1015.0 |
| 20260906110207 | 75 | 130 | 4.3 | 7.8 | 0.00 | 0.00 | 0.37 | 100 | 1015.0 |
| 20260906105706 | 74 | 136 | 3.5 | 7.0 | 0.00 | 0.00 | 0.37 | 100 | 1014.0 |
| 20260906105206 | 74 | 124 | 1.7 | 5.2 | 0.00 | 0.00 | 0.37 | 100 | 1015.0 |
| 20260906104707 | 75 | 90 | 3.5 | 7.8 | 0.00 | 0.00 | 0.37 | 100 | 1015.0 |
| 20260906104207 | 75 | 190 | 2.6 | 7.8 | 0.00 | 0.00 | 0.37 | 100 | 1015.0 |
| 20260906103706 | 75 | 98 | 2.6 | 5.2 | 0.00 | 0.00 | 0.37 | 100 | 1015.0 |
| 20260906103206 | 75 | 191 | 1.7 | 5.2 | 0.00 | 0.00 | 0.34 | 100 | 1015.0 |
| 20260906102706 | 75 | 165 | 0.9 | 2.6 | 0.00 | 0.00 | 0.23 | 100 | 1015.0 |
| 20260906102206 | 75 | 159 | 0.9 | 2.6 | 0.00 | 0.00 | 0.16 | 100 | 1015.0 |
| 20260906101707 | 75 | 214 | 1.7 | 3.5 | 0.00 | 0.00 | 0.15 | 100 | 1015.0 |
| 20260906101206 | 75 | 191 | 1.7 | 4.3 | 0.00 | 0.00 | 0.15 | 100 | 1015.0 |
| 20260906100707 | 75 | 271 | 1.7 | 3.5 | 0.00 | 0.00 | 0.15 | 100 | 1015.0 |
| 20260906100207 | 75 | 248 | 0.9 | 2.6 | 0.00 | 0.00 | 0.15 | 100 | 1015.0 |
| 20260906095706 | 75 | 142 | 0.0 | 2.6 | 0.00 | 0.00 | 0.14 | 100 | 1015.0 |
| 20260906095206 | 75 | 182 | 2.6 | 7.0 | 0.00 | 0.00 | 0.11 | 100 | 1015.0 |
| 20260906094706 | 76 | 295 | 1.7 | 5.2 | 0.00 | 0.00 | 0.09 | 100 | 1015.0 |
| 20260906094207 | 76 | 135 | 1.7 | 2.6 | 0.00 | 0.00 | 0.09 | 100 | 1014.0 |
| 20260906093706 | 76 | 215 | 0.9 | 2.6 | 0.00 | 0.00 | 0.09 | 100 | 1014.0 |
| 20260906093206 | 76 | 140 | 1.7 | 4.3 | 0.00 | 0.00 | 0.09 | 100 | 1014.0 |
| 20260906092706 | 76 | 161 | 2.6 | 5.2 | 0.00 | 0.00 | 0.09 | 100 | 1014.0 |
| 20260906092206 | 76 | 81 | 2.6 | 5.2 | 0.00 | 0.00 | 0.09 | 100 | 1015.0 |
| 20260906091706 | 77 | 55 | 1.7 | 2.6 | 0.00 | 0.00 | 0.08 | 100 | 1015.0 |
| 20260906091206 | 77 | 157 | 0.9 | 6.1 | 0.00 | 0.00 | 0.03 | 100 | 1015.0 |
| 20260906090708 | 78 | 68 | 4.3 | 8.7 | 0.00 | 0.00 | 0.01 | 100 | 1015.0 |
| 20260906090206 | 77 | 44 | 3.5 | 7.8 | 0.00 | 0.00 | 0.00 | 100 | 1015.0 |
| 20260906085707 | 77 | 78 | 3.5 | 7.0 | 0.00 | 0.00 | 0.00 | 100 | 1015.0 |
| 20260906085207 | 77 | 36 | 4.3 | 6.1 | 0.00 | 0.00 | 0.00 | 100 | 1015.0 |
| 20260906084708 | 76 | 37 | 2.6 | 5.2 | 0.00 | 0.00 | 0.00 | 100 | 1014.0 |
| 20260906084206 | 76 | 58 | 3.5 | 6.1 | 0.00 | 0.00 | 0.00 | 100 | 1014.0 |
| 20260906083706 | 75 | 49 | 4.3 | 7.0 | 0.00 | 0.00 | 0.00 | 100 | 1014.0 |
| 20260906083206 | 75 | 46 | 3.5 | 7.0 | 0.00 | 0.00 | 0.00 | 100 | 1014.0 |
| 20260906082706 | 75 | 40 | 4.3 | 9.6 | 0.00 | 0.00 | 0.00 | 100 | 1014.0 |
| 20260906082206 | 75 | 52 | 0.9 | 5.2 | 0.00 | 0.00 | 0.00 | 100 | 1013.0 |
| 20260906081707 | 75 | 128 | 0.0 | 0.0 | 0.00 | 0.00 | 0.00 | 100 | 1013.0 |
| 20260906081206 | 75 | 160 | 0.0 | 0.0 | 0.00 | 0.00 | 0.00 | 100 | 1013.0 |
| 20260906080706 | 75 | 175 | 0.0 | 0.0 | 0.00 | 0.00 | 0.00 | 100 | 1013.0 |
| 20260906080206 | 75 | 148 | 0.0 | 0.0 | 0.00 | 0.00 | 0.00 | 100 | 1013.0 |
| 20260906075707 | 75 | 148 | 0.0 | 0.0 | 0.00 | 0.00 | 0.00 | 100 | 1013.0 |
| 20260906075206 | 75 | 143 | 0.0 | 0.0 | 0.00 | 0.00 | 0.00 | 100 | 1013.0 |
| 20260906074706 | 75 | 140 | 0.0 | 0.0 | 0.00 | 0.00 | 0.00 | 100 | 1013.0 |
| 20260906074206 | 75 | 146 | 0.0 | 0.0 | 0.00 | 0.00 | 0.00 | 100 | 1013.0 |
| 20260906073706 | 75 | 138 | 0.0 | 0.0 | 0.00 | 0.00 | 0.00 | 100 | 1013.0 |
| 20260906073206 | 75 | 148 | 0.0 | 0.0 | 0.00 | 0.00 | 0.00 | 100 | 1013.0 |
| 20260906072707 | 75 | 150 | 0.0 | 0.0 | 0.00 | 0.00 | 0.00 | 100 | 1013.0 |
| 20260906072206 | 75 | 171 | 0.0 | 0.0 | 0.00 | 0.00 | 0.00 | 100 | 1013.0 |
| 20260906071706 | 75 | 147 | 0.0 | 0.0 | 0.00 | 0.00 | 0.00 | 100 | 1013.0 |
| 20260906071206 | 75 | 130 | 0.0 | 0.0 | 0.00 | 0.00 | 0.00 | 100 | 1013.0 |
| 20260906070706 | 75 | 130 | 0.0 | 0.0 | 0.00 | 0.00 | 0.00 | 100 | 1013.0 |
| 20260906070206 | 75 | 130 | 0.0 | 0.0 | 0.00 | 0.00 | 0.00 | 100 | 1013.0 |
| 20260906065706 | 75 | 130 | 0.0 | 0.0 | 0.00 | 0.00 | 0.00 | 100 | 1013.0 |
| 20260906065206 | 75 | 130 | 0.0 | 0.0 | 0.00 | 0.00 | 0.00 | 100 | 1013.0 |
| 20260906064706 | 75 | 162 | 0.0 | 0.0 | 0.00 | 0.00 | 0.00 | 100 | 1013.0 |
| 20260906064209 | 75 | 162 | 0.0 | 0.0 | 0.00 | 0.00 | 0.00 | 100 | 1013.0 |
| 20260906063706 | 75 | 162 | 0.0 | 0.0 | 0.00 | 0.00 | 0.00 | 100 | 1013.0 |
| 20260906063206 | 75 | 154 | 0.0 | 0.0 | 0.00 | 0.00 | 0.00 | 100 | 1013.0 |
| 20260906062706 | 75 | 144 | 0.0 | 0.0 | 0.00 | 0.00 | 0.00 | 100 | 1013.0 |
| 20260906062207 | 75 | 144 | 0.0 | 0.0 | 0.00 | 0.00 | 0.00 | 100 | 1013.0 |
| 20260906061706 | 75 | 144 | 0.0 | 0.0 | 0.00 | 0.00 | 0.00 | 100 | 1013.0 |
| 20260906061206 | 76 | 97 | 0.0 | 0.0 | 0.00 | 0.00 | 0.00 | 100 | 1013.0 |
| 20260906060706 | 76 | 144 | 0.0 | 0.0 | 0.00 | 0.00 | 0.00 | 100 | 1013.0 |
| 20260906060207 | 76 | 131 | 0.0 | 0.0 | 0.00 | 0.00 | 0.00 | 100 | 1013.0 |
| 20260906055706 | 76 | 153 | 0.0 | 0.0 | 0.00 | 0.00 | 0.00 | 100 | 1013.0 |
| 20260906055207 | 76 | 174 | 0.0 | 0.0 | 0.00 | 0.00 | 0.00 | 100 | 1013.0 |
| 20260906054707 | 76 | 143 | 0.0 | 0.0 | 0.00 | 0.00 | 0.00 | 100 | 1013.0 |
| 20260906054206 | 76 | 142 | 0.0 | 0.0 | 0.00 | 0.00 | 0.00 | 100 | 1013.0 |
| 20260906053220 | 76 | 158 | 0.0 | 0.0 | 0.00 | 0.00 | 0.00 | 100 | 1013.0 |
| 20260906052712 | 76 | 156 | 0.0 | 0.0 | 0.00 | 0.00 | 0.00 | 100 | 1013.0 |
| 20260906052206 | 76 | 165 | 0.0 | 0.0 | 0.00 | 0.00 | 0.00 | 100 | 1013.0 |
| 20260906051706 | 76 | 162 | 0.0 | 0.0 | 0.00 | 0.00 | 0.00 | 100 | 1013.0 |
| 20260906051208 | 76 | 154 | 0.0 | 0.0 | 0.00 | 0.00 | 0.00 | 100 | 1013.0 |
| 20260906050706 | 77 | 149 | 0.0 | 0.0 | 0.00 | 0.00 | 0.00 | 100 | 1014.0 |
| 20260906050206 | 76 | 154 | 0.0 | 0.0 | 0.00 | 0.00 | 0.00 | 100 | 1014.0 |
| 20260906045706 | 77 | 154 | 0.0 | 0.0 | 0.00 | 0.00 | 0.00 | 100 | 1014.0 |
| 20260906045206 | 77 | 154 | 0.0 | 0.0 | 0.00 | 0.00 | 0.00 | 100 | 1014.0 |
| 20260906044708 | 77 | 154 | 0.0 | 0.0 | 0.00 | 0.00 | 0.00 | 100 | 1014.0 |
| 20260906044207 | 77 | 154 | 0.0 | 0.0 | 0.00 | 0.00 | 0.00 | 100 | 1014.0 |
| 20260906043706 | 77 | 155 | 0.0 | 0.0 | 0.00 | 0.00 | 0.00 | 100 | 1014.0 |
| 20260906043206 | 77 | 139 | 0.0 | 0.0 | 0.00 | 0.00 | 0.00 | 100 | 1014.0 |
| 20260906042707 | 77 | 138 | 0.0 | 0.0 | 0.00 | 0.00 | 0.00 | 100 | 1014.0 |
| 20260906042206 | 77 | 137 | 0.0 | 0.0 | 0.00 | 0.00 | 0.00 | 100 | 1014.0 |
| 20260906041706 | 78 | 137 | 0.0 | 0.0 | 0.00 | 0.00 | 0.00 | 100 | 1014.0 |
| 20260906041206 | 77 | 137 | 0.0 | 0.0 | 0.00 | 0.00 | 0.00 | 100 | 1014.0 |
| 20260906040706 | 77 | 137 | 0.0 | 0.0 | 0.00 | 0.00 | 0.00 | 100 | 1014.0 |
| 20260906040206 | 78 | 138 | 0.0 | 0.0 | 0.00 | 0.00 | 0.00 | 100 | 1014.0 |
| 20260906035706 | 78 | 136 | 0.0 | 0.0 | 0.00 | 0.00 | 0.00 | 100 | 1013.0 |
| 20260906035206 | 78 | 136 | 0.0 | 0.0 | 0.00 | 0.00 | 0.00 | 100 | 1014.0 |
| 20260906034706 | 78 | 134 | 0.0 | 0.0 | 0.00 | 0.00 | 0.00 | 100 | 1013.0 |
| 20260906034206 | 78 | 125 | 0.0 | 0.0 | 0.00 | 0.00 | 0.00 | 100 | 1013.0 |
| 20260906033706 | 78 | 142 | 0.0 | 0.0 | 0.00 | 0.00 | 0.00 | 100 | 1013.0 |
| 20260906033206 | 78 | 139 | 0.0 | 0.0 | 0.00 | 0.00 | 0.00 | 100 | 1013.0 |
| 20260906032706 | 78 | 140 | 0.0 | 0.0 | 0.00 | 0.00 | 0.00 | 100 | 1013.0 |
| 20260906032208 | 79 | 139 | 0.0 | 0.0 | 0.00 | 0.00 | 0.00 | 100 | 1013.0 |
| 20260906031707 | 79 | 138 | 0.0 | 0.0 | 0.00 | 0.00 | 0.00 | 100 | 1013.0 |
| 20260906031206 | 79 | 145 | 0.0 | 0.0 | 0.00 | 0.00 | 0.00 | 100 | 1013.0 |
| 20260906030706 | 79 | 145 | 0.0 | 0.0 | 0.00 | 0.00 | 0.00 | 100 | 1013.0 |
| 20260906030206 | 79 | 160 | 0.0 | 0.0 | 0.00 | 0.00 | 0.00 | 100 | 1013.0 |
| 20260906025707 | 79 | 158 | 0.0 | 0.0 | 0.00 | 0.00 | 0.00 | 100 | 1013.0 |
| 20260906025208 | 79 | 159 | 0.0 | 0.0 | 0.00 | 0.00 | 0.00 | 100 | 1013.0 |
| 20260906024706 | 80 | 158 | 0.0 | 0.0 | 0.00 | 0.00 | 0.00 | 100 | 1013.0 |
| 20260906024206 | 80 | 150 | 0.0 | 0.0 | 0.00 | 0.00 | 0.00 | 99 | 1013.0 |
| 20260906023707 | 80 | 136 | 0.0 | 0.0 | 0.00 | 0.00 | 0.00 | 98 | 1013.0 |
| 20260906023207 | 80 | 143 | 0.0 | 0.0 | 0.00 | 0.00 | 0.00 | 98 | 1013.0 |
| 20260906022707 | 80 | 162 | 0.0 | 0.0 | 0.00 | 0.00 | 0.00 | 97 | 1013.0 |
| 20260906022207 | 80 | 162 | 0.0 | 0.0 | 0.00 | 0.00 | 0.00 | 97 | 1013.0 |
| 20260906021706 | 80 | 151 | 0.0 | 0.0 | 0.00 | 0.00 | 0.00 | 98 | 1013.0 |
| 20260906021206 | 81 | 157 | 0.0 | 0.0 | 0.00 | 0.00 | 0.00 | 97 | 1013.0 |
| 20260906020706 | 81 | 166 | 0.0 | 0.0 | 0.00 | 0.00 | 0.00 | 96 | 1013.0 |
| 20260906020207 | 81 | 151 | 0.0 | 0.0 | 0.00 | 0.00 | 0.00 | 96 | 1013.0 |
| 20260906015707 | 82 | 158 | 0.0 | 0.0 | 0.00 | 0.00 | 0.00 | 95 | 1013.0 |
| 20260906015207 | 82 | 130 | 0.0 | 0.0 | 0.00 | 0.00 | 0.00 | 94 | 1013.0 |
| 20260906014706 | 82 | 152 | 0.0 | 0.0 | 0.00 | 0.00 | 0.00 | 92 | 1013.0 |
| 20260906014206 | 83 | 154 | 0.0 | 0.0 | 0.00 | 0.00 | 0.00 | 91 | 1013.0 |
| 20260906013709 | 83 | 155 | 0.0 | 0.0 | 0.00 | 0.00 | 0.00 | 90 | 1013.0 |
| 20260906013206 | 83 | 155 | 0.0 | 0.0 | 0.00 | 0.00 | 0.00 | 89 | 1013.0 |
| 20260906012708 | 84 | 144 | 0.0 | 0.0 | 0.00 | 0.00 | 0.00 | 88 | 1013.0 |
| 20260906012206 | 84 | 143 | 0.0 | 0.0 | 0.00 | 0.00 | 0.00 | 87 | 1013.0 |
| 20260906011706 | 85 | 143 | 0.0 | 0.0 | 0.00 | 0.00 | 0.00 | 86 | 1013.0 |
| 20260906011206 | 85 | 143 | 0.0 | 0.0 | 0.00 | 0.00 | 0.00 | 86 | 1012.0 |
| 20260906010707 | 86 | 142 | 0.0 | 0.0 | 0.00 | 0.00 | 0.00 | 85 | 1012.0 |
| 20260906010207 | 86 | 142 | 0.0 | 0.0 | 0.00 | 0.00 | 0.00 | 84 | 1012.0 |
| 20260906005706 | 86 | 142 | 0.0 | 0.0 | 0.00 | 0.00 | 0.00 | 83 | 1012.0 |
| 20260906005206 | 87 | 143 | 0.0 | 0.0 | 0.00 | 0.00 | 0.00 | 82 | 1012.0 |
| 20260906004707 | 88 | 142 | 0.0 | 0.0 | 0.00 | 0.00 | 0.00 | 80 | 1012.0 |
| 20260906004206 | 88 | 142 | 0.0 | 0.0 | 0.00 | 0.00 | 0.00 | 79 | 1012.0 |
| 20260906003706 | 89 | 142 | 0.0 | 0.0 | 0.00 | 0.00 | 0.00 | 78 | 1012.0 |
| 20260906003206 | 89 | 141 | 0.0 | 0.0 | 0.00 | 0.00 | 0.00 | 78 | 1012.0 |
| 20260906002706 | 90 | 139 | 0.0 | 0.0 | 0.00 | 0.00 | 0.00 | 77 | 1012.0 |
| 20260906002207 | 90 | 139 | 0.0 | 0.0 | 0.00 | 0.00 | 0.00 | 78 | 1012.0 |
| 20260906001706 | 91 | 140 | 0.0 | 0.0 | 0.00 | 0.00 | 0.00 | 72 | 1012.0 |
| 20260906001206 | 92 | 140 | 0.0 | 0.0 | 0.00 | 0.00 | 0.00 | 72 | 1012.0 |
| 20260906000706 | 92 | 131 | 0.0 | 0.0 | 0.00 | 0.00 | 0.00 | 71 | 1012.0 |
| 20260906000206 | 93 | 130 | 0.0 | 0.9 | 0.00 | 0.00 | 0.00 | 70 | 1012.0 |
| 20260905235707 | 95 | 123 | 0.0 | 0.0 | 0.00 | 0.00 | 0.00 | 67 | 1012.0 |
| 20260905235206 | 96 | 131 | 0.0 | 0.0 | 0.00 | 0.00 | 0.00 | 65 | 1012.0 |
| 20260905234706 | 97 | 129 | 0.0 | 0.0 | 0.00 | 0.00 | 0.00 | 65 | 1012.0 |
| 20260905234206 | 99 | 147 | 0.0 | 0.0 | 0.00 | 0.00 | 0.00 | 62 | 1013.0 |
| 20260905233706 | 100 | 139 | 0.0 | 1.7 | 0.00 | 0.00 | 0.00 | 61 | 1013.0 |
| 20260905233206 | 102 | 87 | 0.0 | 0.0 | 0.00 | 0.00 | 0.00 | 60 | 1012.0 |
| 20260905232707 | 104 | 139 | 0.0 | 0.0 | 0.00 | 0.00 | 0.00 | 55 | 1012.0 |
| 20260905232206 | 105 | 139 | 0.0 | 0.9 | 0.00 | 0.00 | 0.00 | 51 | 1012.0 |
| 20260905231706 | 106 | 148 | 0.0 | 1.7 | 0.00 | 0.00 | 0.00 | 50 | 1012.0 |
| 20260905231206 | 106 | 100 | 0.0 | 1.7 | 0.00 | 0.00 | 0.00 | 51 | 1012.0 |
| 20260905230707 | 105 | 31 | 0.0 | 2.6 | 0.00 | 0.00 | 0.00 | 50 | 1012.0 |
| 20260905230210 | 105 | 84 | 1.7 | 3.5 | 0.00 | 0.00 | 0.00 | 49 | 1012.0 |
| 20260905225706 | 106 | 113 | 0.9 | 2.6 | 0.00 | 0.00 | 0.00 | 50 | 1012.0 |
| 20260905225206 | 106 | 147 | 0.9 | 4.3 | 0.00 | 0.00 | 0.00 | 48 | 1012.0 |
| 20260905224709 | 107 | 42 | 0.9 | 2.6 | 0.00 | 0.00 | 0.00 | 49 | 1012.0 |
| 20260905224207 | 107 | 137 | 0.9 | 3.5 | 0.00 | 0.00 | 0.00 | 47 | 1012.0 |
| 20260905223706 | 108 | 32 | 1.7 | 4.3 | 0.00 | 0.00 | 0.00 | 46 | 1012.0 |
| 20260905223206 | 109 | 22 | 0.0 | 3.5 | 0.00 | 0.00 | 0.00 | 46 | 1012.0 |
| 20260905222706 | 108 | 113 | 0.0 | 2.6 | 0.00 | 0.00 | 0.00 | 47 | 1012.0 |
| 20260905222206 | 108 | 126 | 0.0 | 2.6 | 0.00 | 0.00 | 0.00 | 46 | 1012.0 |
| 20260905221706 | 107 | 145 | 1.7 | 5.2 | 0.00 | 0.00 | 0.00 | 47 | 1012.0 |
| 20260905221206 | 107 | 113 | 0.0 | 0.9 | 0.00 | 0.00 | 0.00 | 47 | 1012.0 |
| 20260905220706 | 106 | 141 | 0.0 | 1.7 | 0.00 | 0.00 | 0.00 | 47 | 1013.0 |
| 20260905220208 | 104 | 60 | 1.7 | 3.5 | 0.00 | 0.00 | 0.00 | 47 | 1013.0 |
| 20260905215707 | 103 | 26 | 2.6 | 6.1 | 0.00 | 0.00 | 0.00 | 50 | 1013.0 |
| 20260905215207 | 100 | 94 | 3.5 | 7.0 | 0.00 | 0.00 | 0.00 | 51 | 1013.0 |
| 20260905214706 | 103 | 323 | 1.7 | 5.2 | 0.00 | 0.00 | 0.00 | 49 | 1013.0 |
| 20260905214206 | 102 | 308 | 3.5 | 6.1 | 0.00 | 0.00 | 0.00 | 50 | 1013.0 |
| 20260905213706 | 103 | 349 | 3.5 | 5.2 | 0.00 | 0.00 | 0.00 | 51 | 1013.0 |
| 20260905213206 | 104 | 347 | 2.6 | 5.2 | 0.00 | 0.00 | 0.00 | 50 | 1013.0 |
| 20260905212706 | 106 | 315 | 2.6 | 6.1 | 0.00 | 0.00 | 0.00 | 48 | 1013.0 |
| 20260905212208 | 105 | 110 | 0.9 | 4.3 | 0.00 | 0.00 | 0.00 | 48 | 1013.0 |
| 20260905211708 | 107 | 239 | 0.9 | 5.2 | 0.00 | 0.00 | 0.00 | 46 | 1013.0 |
| 20260905211206 | 107 | 94 | 1.7 | 5.2 | 0.00 | 0.00 | 0.00 | 46 | 1013.0 |
| 20260905210707 | 107 | 34 | 2.6 | 5.2 | 0.00 | 0.00 | 0.00 | 48 | 1013.0 |
| 20260905210207 | 108 | 62 | 2.6 | 5.2 | 0.00 | 0.00 | 0.00 | 47 | 1013.0 |
| 20260905205706 | 108 | 125 | 2.6 | 5.2 | 0.00 | 0.00 | 0.00 | 49 | 1013.0 |
| 20260905205206 | 107 | 29 | 1.7 | 6.1 | 0.00 | 0.00 | 0.00 | 50 | 1013.0 |
| 20260905204706 | 108 | 295 | 1.7 | 3.5 | 0.00 | 0.00 | 0.00 | 47 | 1013.0 |
| 20260905204206 | 107 | 144 | 1.7 | 4.3 | 0.00 | 0.00 | 0.00 | 47 | 1013.0 |
| 20260905203706 | 106 | 30 | 5.2 | 7.8 | 0.00 | 0.00 | 0.00 | 48 | 1013.0 |
| 20260905203206 | 107 | 50 | 1.7 | 7.0 | 0.00 | 0.00 | 0.00 | 47 | 1013.0 |
| 20260905202706 | 105 | 57 | 3.5 | 6.1 | 0.00 | 0.00 | 0.00 | 50 | 1013.0 |
| 20260905202207 | 104 | 76 | 3.5 | 7.0 | 0.00 | 0.00 | 0.00 | 50 | 1013.0 |
| 20260905201707 | 105 | 329 | 4.3 | 8.7 | 0.00 | 0.00 | 0.00 | 49 | 1013.0 |
| 20260905201206 | 105 | 62 | 2.6 | 7.0 | 0.00 | 0.00 | 0.00 | 51 | 1013.0 |
| 20260905200707 | 106 | 52 | 2.6 | 6.1 | 0.00 | 0.00 | 0.00 | 50 | 1014.0 |
| 20260905200206 | 107 | 120 | 1.7 | 6.1 | 0.00 | 0.00 | 0.00 | 49 | 1014.0 |
| 20260905195707 | 106 | 77 | 1.7 | 4.3 | 0.00 | 0.00 | 0.00 | 50 | 1014.0 |
| 20260905195206 | 106 | 105 | 1.7 | 3.5 | 0.00 | 0.00 | 0.00 | 48 | 1014.0 |
| 20260905194707 | 106 | 97 | 1.7 | 4.3 | 0.00 | 0.00 | 0.00 | 50 | 1014.0 |
| 20260905194206 | 105 | 72 | 2.6 | 2.6 | 0.00 | 0.00 | 0.00 | 50 | 1014.0 |
| 20260905193706 | 105 | 72 | 3.5 | 5.2 | 0.00 | 0.00 | 0.00 | 50 | 1014.0 |
| 20260905193207 | 106 | 52 | 3.5 | 7.0 | 0.00 | 0.00 | 0.00 | 49 | 1014.0 |
| 20260905192708 | 106 | 115 | 1.7 | 4.3 | 0.00 | 0.00 | 0.00 | 51 | 1014.0 |
| 20260905192206 | 105 | 233 | 0.9 | 4.3 | 0.00 | 0.00 | 0.00 | 51 | 1014.0 |
| 20260905191707 | 105 | 103 | 0.9 | 4.3 | 0.00 | 0.00 | 0.00 | 51 | 1014.0 |
| 20260905191210 | 105 | 131 | 1.7 | 3.5 | 0.00 | 0.00 | 0.00 | 50 | 1014.0 |
| 20260905190706 | 105 | 100 | 2.6 | 7.0 | 0.00 | 0.00 | 0.00 | 50 | 1015.0 |
| 20260905190206 | 105 | 132 | 2.6 | 5.2 | 0.00 | 0.00 | 0.00 | 53 | 1015.0 |
| 20260905185706 | 105 | 84 | 0.9 | 4.3 | 0.00 | 0.00 | 0.00 | 53 | 1015.0 |
| 20260905185206 | 104 | 20 | 2.6 | 7.0 | 0.00 | 0.00 | 0.00 | 53 | 1015.0 |
| 20260905184706 | 102 | 123 | 2.6 | 8.7 | 0.00 | 0.00 | 0.00 | 56 | 1015.0 |
| 20260905184207 | 102 | 39 | 4.3 | 7.0 | 0.00 | 0.00 | 0.00 | 56 | 1015.0 |
| 20260905183706 | 101 | 16 | 3.5 | 7.0 | 0.00 | 0.00 | 0.00 | 56 | 1015.0 |
| 20260905183207 | 101 | 114 | 2.6 | 5.2 | 0.00 | 0.00 | 0.00 | 55 | 1015.0 |
| 20260905182706 | 100 | 234 | 3.5 | 7.0 | 0.00 | 0.00 | 0.00 | 57 | 1015.0 |
| 20260905182207 | 101 | 101 | 2.6 | 7.0 | 0.00 | 0.00 | 0.00 | 57 | 1015.0 |
| 20260905181707 | 100 | 30 | 3.5 | 9.6 | 0.00 | 0.00 | 0.00 | 58 | 1015.0 |
| 20260905181206 | 101 | 129 | 2.6 | 6.1 | 0.00 | 0.00 | 0.00 | 59 | 1015.0 |
| 20260905180706 | 100 | 73 | 2.6 | 3.5 | 0.00 | 0.00 | 0.00 | 58 | 1015.0 |
| 20260905180206 | 102 | 56 | 1.7 | 3.5 | 0.00 | 0.00 | 0.00 | 57 | 1015.0 |
| 20260905175706 | 102 | 119 | 1.7 | 5.2 | 0.00 | 0.00 | 0.00 | 58 | 1015.0 |
| 20260905175207 | 101 | 29 | 1.7 | 5.2 | 0.00 | 0.00 | 0.00 | 61 | 1015.0 |
| 20260905174706 | 99 | 325 | 5.2 | 7.8 | 0.00 | 0.00 | 0.00 | 61 | 1015.0 |
| 20260905174207 | 102 | 55 | 2.6 | 6.1 | 0.00 | 0.00 | 0.00 | 58 | 1015.0 |
| 20260905173707 | 102 | 137 | 1.7 | 5.2 | 0.00 | 0.00 | 0.00 | 60 | 1015.0 |
| 20260905173206 | 101 | 138 | 1.7 | 5.2 | 0.00 | 0.00 | 0.00 | 61 | 1015.0 |
| 20260905172706 | 100 | 104 | 2.6 | 6.1 | 0.00 | 0.00 | 0.00 | 61 | 1015.0 |
| 20260905172206 | 99 | 358 | 1.7 | 5.2 | 0.00 | 0.00 | 0.00 | 62 | 1016.0 |
| 20260905171707 | 99 | 98 | 2.6 | 6.1 | 0.00 | 0.00 | 0.00 | 62 | 1016.0 |
| 20260905171207 | 100 | 32 | 2.6 | 7.8 | 0.00 | 0.00 | 0.00 | 60 | 1016.0 |
| 20260905170706 | 100 | 75 | 1.7 | 3.5 | 0.00 | 0.00 | 0.00 | 62 | 1016.0 |
| 20260905170210 | 99 | 129 | 1.7 | 4.3 | 0.00 | 0.00 | 0.00 | 64 | 1016.0 |
| 20260905165706 | 98 | 81 | 2.6 | 5.2 | 0.00 | 0.00 | 0.00 | 63 | 1016.0 |
| 20260905165208 | 99 | 102 | 2.6 | 5.2 | 0.00 | 0.00 | 0.00 | 63 | 1016.0 |
| 20260905164706 | 99 | 40 | 1.7 | 5.2 | 0.00 | 0.00 | 0.00 | 62 | 1016.0 |
| 20260905164206 | 99 | 123 | 1.7 | 4.3 | 0.00 | 0.00 | 0.00 | 64 | 1016.0 |
| 20260905163706 | 98 | 154 | 1.7 | 5.2 | 0.00 | 0.00 | 0.00 | 65 | 1016.0 |
| 20260905163206 | 97 | 140 | 1.7 | 5.2 | 0.00 | 0.00 | 0.00 | 65 | 1016.0 |
| 20260905162707 | 98 | 153 | 1.7 | 3.5 | 0.00 | 0.00 | 0.00 | 62 | 1016.0 |
| 20260905162207 | 97 | 57 | 1.7 | 3.5 | 0.00 | 0.00 | 0.00 | 66 | 1016.0 |
| 20260905161706 | 96 | 48 | 1.7 | 4.3 | 0.00 | 0.00 | 0.00 | 68 | 1016.0 |
| 20260905161206 | 97 | 298 | 1.7 | 5.2 | 0.00 | 0.00 | 0.00 | 65 | 1016.0 |
| 20260905160706 | 97 | 41 | 2.6 | 5.2 | 0.00 | 0.00 | 0.00 | 67 | 1016.0 |
| 20260905160207 | 96 | 40 | 0.9 | 3.5 | 0.00 | 0.00 | 0.00 | 68 | 1016.0 |
| 20260905155708 | 96 | 98 | 1.7 | 4.3 | 0.00 | 0.00 | 0.00 | 69 | 1016.0 |
| 20260905155207 | 95 | 29 | 1.7 | 5.2 | 0.00 | 0.00 | 0.00 | 70 | 1016.0 |
| 20260905154707 | 94 | 41 | 1.7 | 3.5 | 0.00 | 0.00 | 0.00 | 73 | 1016.0 |
| 20260905154208 | 93 | 39 | 0.0 | 2.6 | 0.00 | 0.00 | 0.00 | 74 | 1016.0 |
| 20260905153707 | 94 | 117 | 0.9 | 2.6 | 0.00 | 0.00 | 0.00 | 72 | 1016.0 |
| 20260905153206 | 94 | 113 | 0.9 | 3.5 | 0.00 | 0.00 | 0.00 | 74 | 1016.0 |
| 20260905152711 | 93 | 97 | 0.9 | 2.6 | 0.00 | 0.00 | 0.00 | 74 | 1016.0 |
| 20260905152206 | 93 | 97 | 1.7 | 3.5 | 0.00 | 0.00 | 0.00 | 76 | 1016.0 |
| 20260905151707 | 92 | 135 | 0.9 | 2.6 | 0.00 | 0.00 | 0.00 | 76 | 1016.0 |
| 20260905151206 | 92 | 156 | 0.9 | 3.5 | 0.00 | 0.00 | 0.00 | 76 | 1016.0 |
| 20260905150706 | 92 | 311 | 1.7 | 3.5 | 0.00 | 0.00 | 0.00 | 78 | 1016.0 |
| 20260905150206 | 91 | 148 | 0.0 | 1.7 | 0.00 | 0.00 | 0.00 | 76 | 1016.0 |
| 20260905145707 | 91 | 148 | 0.9 | 2.6 | 0.00 | 0.00 | 0.00 | 76 | 1016.0 |
| 20260905145207 | 91 | 162 | 0.9 | 2.6 | 0.00 | 0.00 | 0.00 | 80 | 1016.0 |
| 20260905144706 | 90 | 139 | 0.9 | 3.5 | 0.00 | 0.00 | 0.00 | 82 | 1016.0 |
| 20260905144207 | 89 | 117 | 1.7 | 2.6 | 0.00 | 0.00 | 0.00 | 84 | 1016.0 |
| 20260905143706 | 88 | 148 | 1.7 | 3.5 | 0.00 | 0.00 | 0.00 | 87 | 1016.0 |
| 20260905143206 | 87 | 143 | 0.9 | 4.3 | 0.00 | 0.00 | 0.00 | 88 | 1016.0 |
| 20260905142707 | 85 | 74 | 0.0 | 2.6 | 0.00 | 0.00 | 0.00 | 91 | 1016.0 |
| 20260905142207 | 84 | 139 | 0.9 | 2.6 | 0.00 | 0.00 | 0.00 | 93 | 1016.0 |
| 20260905141706 | 83 | 46 | 0.9 | 2.6 | 0.00 | 0.00 | 0.00 | 94 | 1016.0 |
| 20260905141206 | 83 | 151 | 0.0 | 1.7 | 0.00 | 0.00 | 0.00 | 95 | 1016.0 |
| 20260905140706 | 82 | 60 | 0.0 | 2.6 | 0.00 | 0.00 | 0.00 | 96 | 1016.0 |
| 20260905140206 | 82 | 100 | 0.0 | 0.0 | 0.00 | 0.00 | 0.00 | 98 | 1016.0 |
| 20260905135706 | 82 | 127 | 0.0 | 0.0 | 0.00 | 0.00 | 0.00 | 98 | 1017.0 |
| 20260905135207 | 81 | 103 | 0.0 | 0.0 | 0.00 | 0.00 | 0.00 | 100 | 1017.0 |
| 20260905134706 | 81 | 139 | 0.0 | 0.0 | 0.00 | 0.00 | 0.00 | 100 | 1016.0 |
| 20260905134206 | 80 | 144 | 0.0 | 0.0 | 0.00 | 0.00 | 0.00 | 100 | 1016.0 |
| 20260905133706 | 79 | 73 | 0.0 | 0.0 | 0.00 | 0.00 | 0.00 | 100 | 1016.0 |
| 20260905133206 | 79 | 104 | 0.0 | 0.0 | 0.00 | 0.00 | 0.00 | 100 | 1016.0 |
| 20260905132707 | 78 | 134 | 0.0 | 0.0 | 0.00 | 0.00 | 0.00 | 100 | 1016.0 |
| 20260905132206 | 78 | 149 | 0.0 | 0.0 | 0.00 | 0.00 | 0.00 | 100 | 1016.0 |
| 20260905131706 | 77 | 82 | 0.0 | 0.0 | 0.00 | 0.00 | 0.00 | 100 | 1016.0 |
| 20260905131206 | 77 | 142 | 0.0 | 0.0 | 0.00 | 0.00 | 0.00 | 100 | 1016.0 |
| 20260905130706 | 76 | 123 | 0.0 | 0.0 | 0.00 | 0.00 | 0.00 | 100 | 1016.0 |
| 20260905130206 | 76 | 72 | 0.0 | 0.0 | 0.00 | 0.00 | 0.00 | 100 | 1016.0 |
| 20260905125708 | 75 | 62 | 0.0 | 0.0 | 0.00 | 0.00 | 0.00 | 100 | 1016.0 |
| 20260905125206 | 75 | 101 | 0.0 | 0.0 | 0.00 | 0.00 | 0.00 | 100 | 1016.0 |
| 20260905124707 | 75 | 138 | 0.0 | 0.0 | 0.00 | 0.00 | 0.00 | 100 | 1016.0 |
| 20260905124207 | 74 | 130 | 0.0 | 0.0 | 0.00 | 0.00 | 0.00 | 100 | 1016.0 |
| 20260905123706 | 74 | 117 | 0.0 | 0.0 | 0.00 | 0.00 | 0.00 | 100 | 1016.0 |
| 20260905123206 | 74 | 164 | 0.0 | 0.0 | 0.00 | 0.00 | 0.00 | 100 | 1016.0 |
| 20260905122706 | 74 | 164 | 0.0 | 0.0 | 0.00 | 0.00 | 0.00 | 100 | 1016.0 |
| 20260905122207 | 74 | 144 | 0.0 | 0.0 | 0.00 | 0.00 | 0.00 | 100 | 1016.0 |
| 20260905121706 | 73 | 148 | 0.0 | 0.0 | 0.00 | 0.00 | 0.00 | 100 | 1016.0 |
| 20260905121206 | 73 | 152 | 0.0 | 0.0 | 0.00 | 0.00 | 0.00 | 100 | 1016.0 |
| 20260905120706 | 73 | 133 | 0.0 | 0.0 | 0.00 | 0.00 | 0.00 | 100 | 1016.0 |
| 20260905120206 | 73 | 129 | 0.0 | 0.0 | 0.00 | 0.00 | 0.00 | 100 | 1016.0 |
| 20260905115706 | 73 | 137 | 0.0 | 0.0 | 0.00 | 0.00 | 0.00 | 100 | 1016.0 |
| 20260905115206 | 73 | 143 | 0.0 | 0.0 | 0.00 | 0.00 | 0.00 | 100 | 1016.0 |
| 20260905114706 | 73 | 132 | 0.0 | 0.0 | 0.00 | 0.00 | 0.00 | 100 | 1016.0 |
| 20260905114206 | 73 | 148 | 0.0 | 0.0 | 0.00 | 0.00 | 0.00 | 100 | 1016.0 |